Time;durP1;ratioP1;P1;durP2;ratioP2;P2;SDS_P1;SDS_P2;PMS_P1;PMS_P2;Temp;Humidity;BMP_temperature;BMP_pressure;BME280_temperature;BME280_humidity;BME280_pressure;Samples;Min_cycle;Max_cycle;Signal;HPM_P1;HPM_P2
2021/12/24 00:02:02;;;;;;;18.15;9.15;;;;;;;-4.06;62.49;97343.69;1732522;83;21025;-74
2021/12/24 00:04:29;;;;;;;26.10;10.03;;;;;;;-4.08;62.50;97340.63;1719553;83;20985;-74
2021/12/24 00:06:55;;;;;;;18.62;9.70;;;;;;;-4.05;62.40;97334.19;1703601;84;20989;-74
2021/12/24 00:09:23;;;;;;;19.52;9.53;;;;;;;-4.03;62.29;97327.34;1702923;84;21092;-74
2021/12/24 00:11:55;;;;;;;18.07;8.45;;;;;;;-4.04;62.30;97337.22;1701099;84;21410;-74
2021/12/24 00:14:22;;;;;;;17.02;9.03;;;;;;;-4.04;62.11;97334.63;1701007;84;21029;-74
2021/12/24 00:16:53;;;;;;;17.15;8.30;;;;;;;-4.11;62.19;97317.70;1703132;83;20943;-74
2021/12/24 00:35:12;;;;;;;17.82;9.43;;;;;;;-4.19;62.63;97295.98;1713680;82;20986;-73
2021/12/24 00:37:41;;;;;;;19.62;8.95;;;;;;;-4.19;62.40;97284.34;1701194;83;20986;-73
2021/12/24 00:40:17;;;;;;;17.87;9.03;;;;;;;-4.18;62.56;97280.94;1701077;84;21024;-73
2021/12/24 00:42:43;;;;;;;20.82;9.85;;;;;;;-4.15;62.53;97277.53;1700384;84;21006;-73
2021/12/24 00:45:08;;;;;;;24.10;9.33;;;;;;;-4.16;62.49;97275.80;1716834;83;21022;-74
2021/12/24 00:47:35;;;;;;;22.05;9.55;;;;;;;-4.12;62.47;97271.98;1730442;83;21013;-74
2021/12/24 00:50:06;;;;;;;17.65;8.70;;;;;;;-4.13;62.48;97263.77;1730424;83;21018;-73
2021/12/24 00:55:16;;;;;;;;;;;;;;;-4.08;62.45;97229.34;1733091;83;21022;-74
2021/12/24 00:57:48;;;;;;;22.32;8.58;;;;;;;-4.14;62.46;97230.09;1705802;82;20107;-74
2021/12/24 01:00:32;;;;;;;19.85;8.88;;;;;;;-4.15;62.21;97236.13;1701199;84;21017;-74
2021/12/24 01:03:01;;;;;;;18.50;8.40;;;;;;;-4.24;62.37;97192.83;1681481;84;20974;-74
2021/12/24 01:05:31;;;;;;;22.77;9.58;;;;;;;-4.24;62.09;97231.23;1718694;83;21002;-74
2021/12/24 01:07:59;;;;;;;21.57;8.60;;;;;;;-4.28;62.55;97200.12;1709462;83;20982;-74
2021/12/24 01:10:31;;;;;;;22.10;8.90;;;;;;;-4.24;62.45;97208.36;1734215;82;21014;-74
2021/12/24 01:12:59;;;;;;;18.85;9.23;;;;;;;-4.21;62.42;97220.06;1739636;82;21447;-74
2021/12/24 01:15:27;;;;;;;22.50;9.25;;;;;;;-4.26;62.37;97190.66;1726014;82;21553;-74
2021/12/24 01:20:28;;;;;;;17.27;8.30;;;;;;;-4.30;62.37;97196.21;1711844;83;21006;-74
2021/12/24 01:25:49;;;;;;;19.30;9.18;;;;;;;-4.31;62.45;97174.19;1726244;82;21056;-73
2021/12/24 01:39:23;;;;;;;16.07;7.50;;;;;;;-4.26;62.43;97166.08;1711950;84;21391;-73
2021/12/24 01:44:31;;;;;;;19.75;8.53;;;;;;;-4.29;62.93;97167.31;1715790;82;20961;-74
2021/12/24 01:47:05;;;;;;;17.17;8.28;;;;;;;-4.29;63.11;97155.26;1740755;82;21013;-73
2021/12/24 01:49:32;;;;;;;16.62;8.03;;;;;;;-4.24;63.12;97142.38;1722188;82;21049;-73
2021/12/24 01:52:02;;;;;;;19.15;8.20;;;;;;;-4.23;62.89;97151.91;1741157;82;20989;-73
2021/12/24 01:54:28;;;;;;;17.75;9.13;;;;;;;-4.22;62.93;97130.77;1722139;82;20958;-73
2021/12/24 01:56:55;;;;;;;17.07;7.45;;;;;;;-4.24;62.82;97136.80;1734249;82;20981;-73
2021/12/24 01:59:21;;;;;;;14.75;7.90;;;;;;;-4.26;63.13;97122.98;1711688;84;21028;-74
2021/12/24 02:01:49;;;;;;;16.20;7.67;;;;;;;-4.25;63.01;97113.06;1711611;84;21423;-74
2021/12/24 02:04:18;;;;;;;16.45;8.43;;;;;;;-4.30;62.92;97101.78;1711912;84;21534;-73
2021/12/24 02:06:46;;;;;;;23.73;9.20;;;;;;;-4.26;63.16;97100.98;1711574;84;21407;-74
2021/12/24 02:09:13;;;;;;;16.90;8.43;;;;;;;-4.21;63.24;97097.16;1725481;82;21028;-73
2021/12/24 02:11:41;;;;;;;17.77;8.83;;;;;;;-4.18;63.09;97094.63;1730523;82;21542;-73
2021/12/24 02:14:12;;;;;;;18.57;8.68;;;;;;;-4.15;62.99;97091.21;1725931;82;20995;-73
2021/12/24 02:30:02;;;;;;;13.00;7.12;;;;;;;-4.08;62.91;97064.55;1732456;82;20989;-73
2021/12/24 02:32:29;;;;;;;18.67;8.33;;;;;;;-4.06;62.76;97065.46;1731496;83;21435;-73
2021/12/24 02:34:55;;;;;;;19.02;9.68;;;;;;;-4.07;62.94;97053.79;1709793;82;20942;-74
2021/12/24 02:37:22;;;;;;;21.07;9.28;;;;;;;-4.05;63.05;97057.25;1698856;84;21037;-74
2021/12/24 02:39:49;;;;;;;19.17;8.28;;;;;;;-4.05;62.73;97036.55;1714257;83;20966;-74
2021/12/24 02:42:22;;;;;;;15.05;8.45;;;;;;;-4.05;63.01;97035.26;1732699;83;21054;-74
2021/12/24 02:44:51;;;;;;;17.45;8.78;;;;;;;-3.98;62.83;97029.33;1732432;82;21056;-74
2021/12/24 02:55:12;;;;;;;19.10;8.50;;;;;;;-4.02;63.18;97022.37;1703069;84;20973;-76
2021/12/24 02:57:40;;;;;;;16.73;8.30;;;;;;;-4.02;63.43;97015.89;1703074;84;20978;-73
2021/12/24 03:00:19;;;;;;;14.73;7.80;;;;;;;-4.05;63.34;97007.67;1685959;85;21030;-73
2021/12/24 03:02:45;;;;;;;20.45;8.83;;;;;;;-4.07;63.27;97008.05;1686283;84;21405;-73
2021/12/24 03:05:15;;;;;;;17.57;8.33;;;;;;;-4.05;63.21;97004.20;1685744;85;21471;-73
2021/12/24 03:07:43;;;;;;;18.60;8.60;;;;;;;-4.06;63.87;97001.17;1685972;85;20991;-73
2021/12/24 03:10:15;;;;;;;16.10;8.13;;;;;;;-4.00;63.59;96992.19;1696670;83;20999;-73
2021/12/24 03:12:44;;;;;;;18.42;8.70;;;;;;;-4.07;64.25;96999.45;1715529;83;21066;-73
2021/12/24 03:15:14;;;;;;;18.40;8.68;;;;;;;-4.15;65.14;97001.49;1715537;83;21793;-73
2021/12/24 03:17:48;;;;;;;18.67;9.05;;;;;;;-4.14;65.13;96995.49;1715546;83;21042;-73
2021/12/24 03:20:11;;;;;;;17.23;8.03;;;;;;;-4.17;66.02;97003.20;1714455;83;20968;-74
2021/12/24 03:23:05;;;;;;;20.32;9.70;;;;;;;-4.19;66.47;96991.95;1712705;83;20979;-74
2021/12/24 03:25:19;;;;;;;19.82;8.93;;;;;;;-4.24;67.23;96986.73;1702693;83;20990;-73
2021/12/24 03:27:46;;;;;;;20.65;8.53;;;;;;;-4.28;66.95;96968.58;1686945;84;21018;-74
2021/12/24 03:30:13;;;;;;;17.30;9.80;;;;;;;-4.26;66.78;96984.56;1686955;85;21022;-73
2021/12/24 03:32:40;;;;;;;15.68;8.83;;;;;;;-4.29;67.24;96968.11;1704137;84;21010;-74
2021/12/24 03:35:07;;;;;;;18.73;9.63;;;;;;;-4.30;67.43;96953.44;1688755;84;20998;-74
2021/12/24 03:37:34;;;;;;;23.18;9.75;;;;;;;-4.33;68.46;96950.84;1711723;83;20987;-74
2021/12/24 03:40:03;;;;;;;22.93;9.63;;;;;;;-4.38;68.85;96961.98;1750922;81;21025;-74
2021/12/24 03:42:30;;;;;;;18.45;8.95;;;;;;;-4.41;69.42;96957.17;1745127;81;21427;-74
2021/12/24 03:45:07;;;;;;;16.52;8.85;;;;;;;-4.44;70.24;96954.13;1756140;81;21068;-73
2021/12/24 03:47:26;;;;;;;19.25;8.93;;;;;;;-4.47;69.97;96962.28;1743778;81;21430;-74
2021/12/24 03:50:04;;;;;;;21.07;9.95;;;;;;;-4.49;71.04;96962.25;1746027;81;21065;-73
2021/12/24 03:54:58;;;;;;;19.48;9.00;;;;;;;-4.51;70.48;96959.67;1749075;81;21045;-73
2021/12/24 03:57:39;;;;;;;21.87;9.65;;;;;;;-4.52;72.15;96959.20;1775169;80;20986;-74
2021/12/24 04:00:31;;;;;;;20.15;9.93;;;;;;;-4.54;71.36;96954.86;1774876;81;21021;-73
2021/12/24 04:03:16;;;;;;;21.95;9.60;;;;;;;-4.54;70.57;96947.98;1775264;81;21411;-73
2021/12/24 04:05:44;;;;;;;21.23;10.40;;;;;;;-4.55;71.23;96949.25;1775347;81;21029;-73
2021/12/24 04:08:22;;;;;;;17.25;9.00;;;;;;;-4.58;72.60;96941.44;1754799;81;21119;-73
2021/12/24 04:11:06;;;;;;;22.42;9.28;;;;;;;-4.62;72.77;96943.13;1740904;82;21467;-73
2021/12/24 04:13:34;;;;;;;19.62;9.30;;;;;;;-4.57;71.30;96954.84;1734218;83;21033;-73
2021/12/24 04:16:01;;;;;;;17.60;9.30;;;;;;;-4.58;72.68;96941.02;1734149;82;21046;-73
2021/12/24 04:26:29;;;;;;;18.15;9.90;;;;;;;-4.55;72.98;96910.45;1763142;81;20946;-73
2021/12/24 04:28:55;;;;;;;19.20;10.48;;;;;;;-4.63;75.51;96906.48;1744600;81;21549;-74
2021/12/24 04:31:29;;;;;;;19.27;9.78;;;;;;;-4.65;73.59;96905.17;1768838;81;21009;-74
2021/12/24 04:33:57;;;;;;;18.25;9.30;;;;;;;-4.68;74.47;96900.39;1743265;82;21504;-74
2021/12/24 04:52:54;;;;;;;19.10;9.28;;;;;;;-4.78;75.03;96883.46;1764364;81;21002;-73
2021/12/24 05:03:43;;;;;;;19.05;10.13;;;;;;;-4.82;77.53;96878.25;1736077;80;21033;-74
2021/12/24 05:06:07;;;;;;;18.85;9.18;;;;;;;-4.84;76.32;96860.54;1729076;82;21017;-74
2021/12/24 05:08:25;;;;;;;24.45;10.63;;;;;;;-4.82;76.00;96866.17;1714958;82;20961;-74
2021/12/24 05:10:52;;;;;;;19.95;10.10;;;;;;;-4.84;76.25;96865.70;1754025;81;21057;-75
2021/12/24 05:13:22;;;;;;;18.40;10.00;;;;;;;-4.88;77.85;96859.64;1729501;83;20990;-74
2021/12/24 05:16:17;;;;;;;19.25;9.55;;;;;;;-4.91;77.90;96842.38;1730724;83;21057;-73
2021/12/24 05:21:37;;;;;;;21.70;10.35;;;;;;;-4.83;76.52;96850.22;1644091;86;21018;-73
2021/12/24 05:24:09;;;;;;;22.37;10.18;;;;;;;-4.86;78.29;96865.69;1665689;86;21058;-73
2021/12/24 05:26:36;;;;;;;20.15;10.58;;;;;;;-4.82;76.39;96859.70;1696738;84;21205;-73
2021/12/24 05:29:04;;;;;;;23.20;10.55;;;;;;;-4.77;76.33;96836.52;1700828;84;21518;-74
2021/12/24 05:31:32;;;;;;;19.80;9.88;;;;;;;-4.74;76.62;96820.18;1701580;83;21033;-74
2021/12/24 05:34:00;;;;;;;21.95;10.63;;;;;;;-4.74;77.26;96820.18;1701032;83;21060;-74
2021/12/24 05:36:26;;;;;;;19.02;9.90;;;;;;;-4.80;77.53;96808.04;1711028;83;21518;-74
2021/12/24 05:38:53;;;;;;;21.33;10.23;;;;;;;-4.80;76.87;96814.50;1730332;82;20951;-74
2021/12/24 05:41:23;;;;;;;20.90;10.55;;;;;;;-4.80;76.96;96808.04;1726784;83;20978;-74
2021/12/24 05:43:51;;;;;;;21.00;10.38;;;;;;;-4.83;76.53;96801.53;1703463;82;21037;-74
2021/12/24 05:46:18;;;;;;;24.57;11.08;;;;;;;-4.83;77.69;96796.36;1709773;83;20962;-74
2021/12/24 05:48:50;;;;;;;24.90;10.23;;;;;;;-4.80;76.06;96839.06;1728612;83;21400;-74
2021/12/24 05:51:17;;;;;;;22.65;10.13;;;;;;;-4.81;76.49;96826.55;1730953;82;21009;-74
2021/12/24 05:53:47;;;;;;;20.85;10.25;;;;;;;-4.74;76.69;96842.16;1730645;83;20998;-74
2021/12/24 05:56:18;;;;;;;21.70;10.63;;;;;;;-4.73;75.72;96848.64;1701876;84;21001;-74
2021/12/24 05:58:47;;;;;;;23.67;11.12;;;;;;;-4.75;75.63;96850.31;1701848;84;21088;-74
2021/12/24 06:01:14;;;;;;;20.75;10.82;;;;;;;-4.76;76.64;96862.81;1710515;83;20942;-74
2021/12/24 06:03:45;;;;;;;19.90;10.30;;;;;;;-4.79;76.93;96872.69;1730187;83;21010;-73
2021/12/24 06:06:12;;;;;;;20.72;9.65;;;;;;;-4.74;76.19;96858.51;1730046;82;21013;-75
2021/12/24 06:08:39;;;;;;;23.70;11.53;;;;;;;-4.69;75.72;96862.02;1730743;82;20966;-73
2021/12/24 06:11:07;;;;;;;24.00;10.95;;;;;;;-4.68;76.61;96854.73;1730637;80;21030;-73
2021/12/24 06:13:36;;;;;;;19.02;10.08;;;;;;;-4.67;76.38;96856.88;1730892;83;21006;-73
2021/12/24 06:16:05;;;;;;;22.95;11.55;;;;;;;-4.66;76.58;96848.27;1730766;82;21049;-73
2021/12/24 06:18:32;;;;;;;20.97;11.73;;;;;;;-4.65;76.03;96874.14;1724477;82;21446;-74
2021/12/24 06:21:02;;;;;;;22.02;11.18;;;;;;;-4.62;76.47;96849.19;1701657;83;21006;-73
2021/12/24 06:23:28;;;;;;;29.27;12.65;;;;;;;-4.70;77.09;96882.70;1701751;83;20998;-73
2021/12/24 06:25:58;;;;;;;27.90;12.25;;;;;;;-4.66;76.94;96867.66;1720123;83;20981;-73
2021/12/24 06:28:26;;;;;;;25.70;12.03;;;;;;;-4.68;77.48;96865.48;1730808;83;21034;-74
2021/12/24 06:30:53;;;;;;;26.30;12.33;;;;;;;-4.64;76.00;96852.59;1730044;82;21014;-75
2021/12/24 06:33:20;;;;;;;24.45;11.65;;;;;;;-4.64;75.97;96868.55;1715540;82;21017;-75
2021/12/24 06:35:47;;;;;;;27.45;11.53;;;;;;;-4.61;76.83;96873.75;1709809;82;21014;-75
2021/12/24 06:38:13;;;;;;;23.62;12.53;;;;;;;-4.55;76.68;96868.67;1701425;84;20993;-74
2021/12/24 06:40:40;;;;;;;27.75;11.18;;;;;;;-4.46;76.25;96865.73;1711674;83;21037;-75
2021/12/24 06:43:07;;;;;;;26.85;11.80;;;;;;;-4.48;76.93;96852.81;1728725;82;21415;-75
2021/12/24 06:45:35;;;;;;;21.87;11.08;;;;;;;-4.53;77.83;96870.84;1740900;82;21013;-74
2021/12/24 06:48:04;;;;;;;24.75;11.83;;;;;;;-4.53;78.03;96866.11;1741245;82;21067;-74
2021/12/24 06:50:32;;;;;;;26.00;11.70;;;;;;;-4.49;77.14;96865.27;1725537;82;21068;-74
2021/12/24 06:52:59;;;;;;;23.52;11.43;;;;;;;-4.47;77.38;96894.62;1701724;84;21005;-75
2021/12/24 06:55:26;;;;;;;24.47;11.95;;;;;;;-4.47;77.20;96866.17;1701705;84;20986;-75
2021/12/24 06:57:55;;;;;;;24.45;12.82;;;;;;;-4.45;77.48;96858.44;1701053;84;20965;-74
2021/12/24 07:00:24;;;;;;;24.72;12.30;;;;;;;-4.42;76.83;96841.64;1705511;83;21037;-74
2021/12/24 07:02:53;;;;;;;25.23;12.85;;;;;;;-4.43;77.55;96861.48;1730838;82;20974;-75
2021/12/24 07:05:20;;;;;;;25.62;12.47;;;;;;;-4.34;78.00;96833.97;1730739;83;21049;-74
2021/12/24 07:07:47;;;;;;;23.10;11.95;;;;;;;-4.39;77.99;96831.34;1730906;83;21474;-75
2021/12/24 07:10:14;;;;;;;29.23;13.55;;;;;;;-4.44;77.72;96812.33;1730703;82;21483;-75
2021/12/24 07:12:41;;;;;;;26.65;12.43;;;;;;;-4.39;78.64;96814.09;1722940;80;20998;-75
2021/12/24 07:15:08;;;;;;;21.57;11.78;;;;;;;-4.39;77.37;96807.62;1701781;83;20962;-75
2021/12/24 07:17:35;;;;;;;24.07;12.90;;;;;;;-4.36;77.53;96808.11;1701606;84;21046;-74
2021/12/24 07:20:04;;;;;;;23.92;12.37;;;;;;;-4.31;77.36;96801.27;1701821;84;21002;-74
2021/12/24 07:22:31;;;;;;;23.15;11.88;;;;;;;-4.31;78.73;96782.27;1727383;83;20989;-74
2021/12/24 07:24:57;;;;;;;24.82;12.80;;;;;;;-4.27;77.54;96782.75;1730834;83;21017;-74
2021/12/24 07:27:24;;;;;;;25.60;13.35;;;;;;;-4.26;77.74;96778.89;1729204;83;21402;-74
2021/12/24 07:29:50;;;;;;;27.48;13.05;;;;;;;-4.18;77.28;96793.19;1730941;83;21026;-75
2021/12/24 07:32:17;;;;;;;26.85;13.55;;;;;;;-4.08;77.46;96791.53;1730021;82;21025;-74
2021/12/24 07:34:43;;;;;;;23.73;12.60;;;;;;;-4.01;78.01;96803.69;1731054;83;20955;-75
2021/12/24 07:37:10;;;;;;;25.62;12.90;;;;;;;-4.01;77.71;96794.63;1731020;82;20967;-75
2021/12/24 07:39:36;;;;;;;26.85;13.20;;;;;;;-4.00;77.55;96791.18;1730839;83;21017;-74
2021/12/24 07:42:03;;;;;;;25.45;13.32;;;;;;;-3.98;77.19;96792.05;1730859;82;21436;-75
2021/12/24 07:44:33;;;;;;;30.00;14.93;;;;;;;-3.99;77.49;96776.53;1709356;82;21039;-74
2021/12/24 07:47:01;;;;;;;26.37;13.50;;;;;;;-4.00;76.95;96785.13;1701802;83;21002;-74
2021/12/24 07:52:08;;;;;;;24.75;12.65;;;;;;;-3.90;77.04;96769.27;1701835;83;21026;-75
2021/12/24 07:54:31;;;;;;;24.35;13.30;;;;;;;-3.79;77.32;96777.97;1701370;83;21475;-74
2021/12/24 07:56:59;;;;;;;22.52;12.75;;;;;;;-3.79;77.23;96768.06;1731063;83;21442;-75
2021/12/24 07:59:27;;;;;;;23.15;12.45;;;;;;;-3.76;77.50;96776.70;1730833;83;21009;-75
2021/12/24 08:01:56;;;;;;;24.05;13.28;;;;;;;-3.72;77.13;96775.00;1730974;83;20974;-74
2021/12/24 08:04:23;;;;;;;24.82;13.48;;;;;;;-3.69;76.95;96776.74;1730926;82;20998;-75
2021/12/24 08:06:50;;;;;;;30.17;15.05;;;;;;;-3.63;76.95;96772.48;1708364;82;21482;-74
2021/12/24 08:09:16;;;;;;;30.77;14.87;;;;;;;-3.54;77.21;96785.91;1724485;83;21626;-75
2021/12/24 08:11:43;;;;;;;27.65;14.23;;;;;;;-3.56;77.29;96772.52;1708153;82;20997;-75
2021/12/24 08:14:09;;;;;;;27.45;15.23;;;;;;;-3.52;76.78;96782.04;1732081;82;21025;-75
2021/12/24 08:16:37;;;;;;;36.33;16.52;;;;;;;-3.45;76.89;96786.39;1763620;81;21398;-75
2021/12/24 08:19:03;;;;;;;35.15;16.77;;;;;;;-3.41;76.80;96795.07;1769672;81;21406;-75
2021/12/24 08:21:30;;;;;;;30.52;16.15;;;;;;;-3.38;77.03;96785.59;1769720;81;20982;-74
2021/12/24 08:23:57;;;;;;;30.43;16.07;;;;;;;-3.34;76.60;96793.82;1769099;81;21487;-75
2021/12/24 08:26:23;;;;;;;34.05;16.77;;;;;;;-3.27;77.06;96783.48;1750590;80;21410;-74
2021/12/24 08:28:50;;;;;;;31.10;15.98;;;;;;;-3.20;76.41;96787.86;1704942;83;21057;-75
2021/12/24 08:31:18;;;;;;;29.55;15.32;;;;;;;-3.19;76.97;96790.88;1681246;85;21476;-74
2021/12/24 08:33:44;;;;;;;35.05;16.00;;;;;;;-3.17;76.28;96787.01;1681295;85;21353;-75
2021/12/24 08:36:11;;;;;;;29.65;15.35;;;;;;;-3.09;76.66;96791.36;1694485;84;21103;-75
2021/12/24 08:38:39;;;;;;;28.40;15.03;;;;;;;-3.14;76.51;96780.11;1769671;81;20994;-74
2021/12/24 08:41:07;;;;;;;31.33;15.70;;;;;;;-3.11;76.48;96781.40;1769166;80;21021;-74
2021/12/24 08:43:34;;;;;;;30.65;14.98;;;;;;;-3.09;75.91;96778.41;1767175;80;20930;-74
2021/12/24 08:46:01;;;;;;;29.85;15.35;;;;;;;-3.16;76.16;96775.33;1761971;80;21021;-74
2021/12/24 08:48:27;;;;;;;29.70;15.65;;;;;;;-3.16;76.47;96775.33;1765992;80;20914;-75
2021/12/24 08:50:54;;;;;;;32.20;14.07;;;;;;;-3.17;76.64;96772.75;1712884;83;22048;-75
2021/12/24 08:53:23;;;;;;;29.32;15.60;;;;;;;-3.17;76.71;96771.45;1710485;83;21029;-75
2021/12/24 08:55:51;;;;;;;30.48;15.05;;;;;;;-3.07;77.13;96768.05;1703441;82;21515;-75
2021/12/24 08:58:17;;;;;;;26.50;14.90;;;;;;;-3.04;76.58;96768.05;1717187;81;21439;-75
2021/12/24 09:00:44;;;;;;;31.93;15.95;;;;;;;-2.98;76.71;96768.52;1736582;81;20997;-75
2021/12/24 09:03:11;;;;;;;34.43;16.02;;;;;;;-2.93;76.49;96761.62;1755265;81;20943;-74
2021/12/24 09:05:38;;;;;;;31.25;16.12;;;;;;;-2.87;76.38;96753.00;1759931;81;21046;-75
2021/12/24 09:08:05;;;;;;;31.60;15.50;;;;;;;-2.77;76.21;96763.84;1745561;81;21050;-75
2021/12/24 09:10:31;;;;;;;30.37;15.35;;;;;;;-2.69;76.21;96755.63;1732234;82;21097;-75
2021/12/24 09:12:58;;;;;;;32.90;15.85;;;;;;;-2.69;76.72;96763.41;1733036;82;21092;-75
2021/12/24 09:15:30;;;;;;;32.60;16.40;;;;;;;-2.72;75.79;96754.77;1730401;82;21019;-74
2021/12/24 09:18:00;;;;;;;32.90;16.97;;;;;;;-2.67;76.04;96749.16;1711012;83;21047;-75
2021/12/24 09:20:34;;;;;;;33.80;16.95;;;;;;;-2.67;75.90;96756.52;1700854;83;21058;-75
2021/12/24 09:23:00;;;;;;;34.40;16.35;;;;;;;-2.57;75.63;96737.94;1690920;85;20975;-75
2021/12/24 09:25:28;;;;;;;30.20;16.30;;;;;;;-2.54;76.08;96726.70;1701438;84;20979;-75
2021/12/24 09:27:56;;;;;;;33.88;16.60;;;;;;;-2.51;76.33;96720.23;1729908;83;20966;-75
2021/12/24 09:30:24;;;;;;;34.63;18.20;;;;;;;-2.41;76.45;96716.79;1769355;80;20987;-75
2021/12/24 09:32:51;;;;;;;36.50;18.23;;;;;;;-2.38;76.61;96709.44;1766407;80;21014;-75
2021/12/24 09:35:19;;;;;;;36.73;17.95;;;;;;;-2.39;75.99;96702.52;1757349;81;20974;-75
2021/12/24 09:37:47;;;;;;;33.33;18.60;;;;;;;-2.36;77.01;96689.98;1750072;80;21088;-75
2021/12/24 09:40:16;;;;;;;34.20;17.05;;;;;;;-2.33;77.28;96688.25;1758622;80;21368;-75
2021/12/24 09:42:43;;;;;;;31.12;17.62;;;;;;;-2.28;76.27;96686.97;1753877;80;21447;-75
2021/12/24 09:45:11;;;;;;;39.25;19.17;;;;;;;-2.19;76.37;96680.91;1753008;80;20999;-75
2021/12/24 09:47:39;;;;;;;32.67;17.87;;;;;;;-2.14;77.41;96664.89;1712033;83;20943;-75
2021/12/24 09:50:10;;;;;;;31.68;17.37;;;;;;;-2.08;77.31;96662.73;1710900;83;20997;-75
2021/12/24 09:52:41;;;;;;;31.55;18.12;;;;;;;-2.15;76.96;96649.73;1703392;82;21057;-76
2021/12/24 09:55:13;;;;;;;37.25;18.90;;;;;;;-2.17;76.90;96659.69;1709091;83;20997;-76
2021/12/24 09:57:41;;;;;;;36.23;17.20;;;;;;;-2.17;78.00;96661.87;1721409;81;21487;-76
2021/12/24 10:00:11;;;;;;;37.42;19.07;;;;;;;-2.14;77.55;96657.11;1737272;80;21454;-77
2021/12/24 10:02:44;;;;;;;34.75;19.00;;;;;;;-2.09;77.61;96659.69;1737370;81;21009;-76
2021/12/24 10:05:42;;;;;;;34.85;18.60;;;;;;;-2.08;77.15;96651.90;1736835;82;20961;-76
2021/12/24 10:08:19;;;;;;;36.93;18.67;;;;;;;-2.01;77.67;96652.76;1735695;83;21073;-76
2021/12/24 10:10:50;;;;;;;36.98;19.55;;;;;;;-1.89;77.56;96642.79;1735539;82;21036;-75
2021/12/24 10:13:38;;;;;;;37.67;19.50;;;;;;;-1.83;78.09;96643.22;1786261;80;20954;-75
2021/12/24 10:16:17;;;;;;;37.95;18.95;;;;;;;-1.81;77.80;96646.24;1778234;80;21408;-74
2021/12/24 10:18:47;;;;;;;38.02;19.32;;;;;;;-1.81;78.43;96638.45;1766864;81;20962;-75
2021/12/24 10:21:22;;;;;;;39.78;20.88;;;;;;;-1.77;78.13;96630.21;1766558;80;20949;-75
2021/12/24 10:24:00;;;;;;;35.28;19.95;;;;;;;-1.82;78.44;96639.33;1746341;81;21419;-75
2021/12/24 10:26:33;;;;;;;36.88;19.65;;;;;;;-1.89;78.75;96636.30;1705495;83;21330;-74
2021/12/24 10:29:07;;;;;;;38.63;21.12;;;;;;;-1.91;77.91;96643.23;1686213;85;21056;-75
2021/12/24 10:31:43;;;;;;;38.17;20.57;;;;;;;-1.90;77.47;96639.77;1694952;82;20977;-75
2021/12/24 10:34:36;;;;;;;39.23;20.77;;;;;;;-1.94;77.78;96635.44;1730241;82;21001;-75
2021/12/24 10:37:11;;;;;;;37.85;20.90;;;;;;;-1.99;77.83;96632.87;1725462;83;20954;-74
2021/12/24 10:39:43;;;;;;;;;;;;;;;-1.96;78.91;96632.00;1732403;82;21072;-74
2021/12/24 10:42:15;;;;;;;35.33;19.15;;;;;;;-1.93;78.78;96630.67;1697937;82;20139;-75
2021/12/24 10:44:45;;;;;;;39.98;20.82;;;;;;;-1.98;77.61;96621.61;1683778;85;21490;-74
2021/12/24 10:47:28;;;;;;;44.27;20.88;;;;;;;-2.00;77.96;96625.92;1684041;84;21096;-74
2021/12/24 10:50:07;;;;;;;36.80;20.72;;;;;;;-1.99;78.28;96625.92;1701972;84;21040;-72
2021/12/24 10:52:46;;;;;;;46.75;22.85;;;;;;;-1.97;78.19;96633.72;1707126;84;21124;-73
2021/12/24 10:55:09;;;;;;;43.00;21.33;;;;;;;-1.96;80.43;96636.73;1679648;84;21028;-72
2021/12/24 10:57:40;;;;;;;40.52;22.05;;;;;;;-1.90;78.68;96626.36;1752118;81;21008;-73
2021/12/24 11:00:24;;;;;;;42.78;22.62;;;;;;;-1.84;78.96;96628.52;1750356;81;20985;-70
2021/12/24 11:02:59;;;;;;;41.55;21.55;;;;;;;-1.87;78.85;96624.19;1769303;81;21053;-73
2021/12/24 11:05:36;;;;;;;42.48;21.80;;;;;;;-1.86;79.28;96624.16;1760606;81;21364;-71
2021/12/24 11:08:13;;;;;;;40.15;23.65;;;;;;;-1.84;81.40;96611.63;1737839;81;21035;-71
2021/12/24 11:10:51;;;;;;;43.35;22.77;;;;;;;-1.77;80.42;96615.92;1750369;80;21032;-72
2021/12/24 11:13:27;;;;;;;40.65;21.77;;;;;;;-1.73;80.61;96613.30;1745355;81;21065;-71
2021/12/24 11:15:52;;;;;;;39.38;22.82;;;;;;;-1.67;81.34;96605.09;1737670;82;21438;-71
2021/12/24 11:18:23;;;;;;;43.17;23.05;;;;;;;-1.62;81.08;96605.94;1738436;81;21036;-70
2021/12/24 11:20:58;;;;;;;47.83;23.75;;;;;;;-1.63;80.55;96608.95;1737816;82;21049;-71
2021/12/24 11:23:27;;;;;;;44.88;24.98;;;;;;;-1.67;83.70;96624.57;1742476;81;21018;-70
2021/12/24 11:25:59;;;;;;;46.73;23.35;;;;;;;-1.66;81.84;96607.66;1764474;80;21349;-73
2021/12/24 11:28:27;;;;;;;39.00;22.42;;;;;;;-1.62;83.05;96610.67;1750556;80;21451;-72
2021/12/24 11:30:59;;;;;;;42.50;21.70;;;;;;;-1.57;81.86;96613.27;1768365;81;21591;-72
2021/12/24 11:33:30;;;;;;;41.77;22.42;;;;;;;-1.49;82.11;96610.19;1754042;81;21033;-72
2021/12/24 11:35:59;;;;;;;37.00;21.42;;;;;;;-1.43;81.56;96614.50;1737326;82;21040;-72
2021/12/24 11:38:33;;;;;;;40.12;21.60;;;;;;;-1.36;81.73;96612.30;1749044;81;21412;-71
2021/12/24 11:41:02;;;;;;;41.30;21.90;;;;;;;-1.34;81.47;96627.89;1754385;81;20946;-72
2021/12/24 11:43:36;;;;;;;40.25;21.65;;;;;;;-1.29;81.68;96629.19;1763708;81;21001;-72
2021/12/24 11:46:06;;;;;;;38.48;21.82;;;;;;;-1.29;82.31;96627.88;1768193;81;21076;-72
2021/12/24 11:48:34;;;;;;;45.03;23.25;;;;;;;-1.31;82.40;96632.20;1767949;81;21410;-76
2021/12/24 11:51:11;;;;;;;37.93;20.92;;;;;;;-1.26;81.51;96616.16;1798275;79;21036;-72
2021/12/24 11:53:38;;;;;;;39.20;21.60;;;;;;;-1.31;83.33;96614.89;1738147;82;21458;-73
2021/12/24 11:56:08;;;;;;;37.63;20.70;;;;;;;-1.29;81.73;96609.23;1740985;81;20998;-73
2021/12/24 11:58:51;;;;;;;39.33;21.33;;;;;;;-1.21;81.13;96617.87;1764318;80;21422;-72
2021/12/24 12:01:25;;;;;;;42.35;22.58;;;;;;;-1.25;84.72;96613.55;1723192;81;20996;-72
2021/12/24 12:03:56;;;;;;;40.90;22.02;;;;;;;-1.20;82.91;96614.84;1749260;81;21028;-73
2021/12/24 12:06:28;;;;;;;42.17;21.68;;;;;;;-1.10;82.52;96613.05;1755413;81;21017;-75
2021/12/24 12:08:57;;;;;;;37.10;20.15;;;;;;;-1.09;83.40;96623.87;1739064;82;21073;-72
2021/12/24 12:11:35;;;;;;;40.58;22.32;;;;;;;-1.02;83.02;96616.89;1761357;81;21025;-71
2021/12/24 12:14:18;;;;;;;45.52;25.70;;;;;;;-0.97;82.78;96615.13;1769090;81;21021;-71
2021/12/24 12:16:56;;;;;;;44.85;25.23;;;;;;;-0.91;82.02;96611.64;1768915;80;21033;-71
2021/12/24 12:19:46;;;;;;;42.95;24.30;;;;;;;-0.86;83.77;96606.84;1753348;81;21005;-71
2021/12/24 12:25:10;;;;;;;48.20;25.05;;;;;;;-0.81;82.93;96622.41;1768520;81;20977;-72
2021/12/24 12:27:47;;;;;;;46.48;25.82;;;;;;;-0.81;82.75;96622.41;1741700;81;21021;-73
2021/12/24 12:30:42;;;;;;;43.60;23.75;;;;;;;-0.82;82.43;96625.44;1738238;82;20985;-73
2021/12/24 12:33:19;;;;;;;45.78;23.77;;;;;;;-0.85;81.87;96625.48;1750288;80;21439;-73
2021/12/24 12:35:56;;;;;;;46.00;25.27;;;;;;;-0.87;82.38;96619.40;1756011;81;20950;-72
2021/12/24 12:38:33;;;;;;;47.90;25.43;;;;;;;-0.83;83.01;96614.61;1749969;81;21005;-73
2021/12/24 12:41:25;;;;;;;45.65;24.82;;;;;;;-0.82;82.54;96614.19;1755368;81;20989;-73
2021/12/24 12:43:55;;;;;;;46.20;24.30;;;;;;;-0.78;82.40;96615.89;1755833;81;21029;-72
2021/12/24 12:46:31;;;;;;;56.98;29.15;;;;;;;-0.73;83.58;96621.05;1752767;80;22106;-73
2021/12/24 12:49:00;;;;;;;54.83;29.35;;;;;;;-0.77;82.85;96626.72;1755177;81;21021;-72
2021/12/24 12:51:56;;;;;;;51.53;27.82;;;;;;;-0.75;82.53;96627.56;1755191;81;21084;-72
2021/12/24 12:54:44;;;;;;;52.55;27.20;;;;;;;-0.77;83.47;96621.95;1692557;84;21067;-72
2021/12/24 12:57:37;;;;;;;72.05;35.52;;;;;;;-0.78;83.25;96617.63;1751371;81;20988;-72
2021/12/24 13:00:21;;;;;;;51.23;27.30;;;;;;;-0.82;84.60;96617.63;1752396;81;20974;-72
2021/12/24 13:05:45;;;;;;;54.33;28.35;;;;;;;-0.83;83.27;96617.67;1752846;81;20997;-72
2021/12/24 13:08:22;;;;;;;54.35;26.73;;;;;;;-0.84;83.36;96615.48;1748998;81;21021;-71
2021/12/24 13:11:06;;;;;;;51.10;28.00;;;;;;;-0.83;83.52;96613.31;1754750;80;21430;-71
2021/12/24 13:14:01;;;;;;;45.65;24.77;;;;;;;-0.78;84.09;96615.89;1755041;81;21080;-71
2021/12/24 13:16:33;;;;;;;51.70;27.17;;;;;;;-0.79;83.30;96614.14;1762345;80;21033;-71
2021/12/24 13:19:23;;;;;;;49.10;29.87;;;;;;;-0.80;83.19;96613.72;1775248;79;20994;-71
2021/12/24 13:24:16;;;;;;;43.85;24.35;;;;;;;-0.81;83.27;96629.79;1759933;80;21033;-70